This is the latest recevied weather packets stored in our database for station/object HB9MIR-13. If no packets are shown the sender has not sent any weather packets the latest 10 day(s).
| Time | Temp. | Humidity | Pressure | Rain* | Wind** | Luminosity | Snow |
|---|---|---|---|---|---|---|---|
| 1777765672 | 13.89° C | 72% | 1015.4 hPa | 0 mm | - | 0 W/m² | - |
| 1777764984 | 13.89° C | 72% | 1015.4 hPa | 0 mm | - | 0 W/m² | - |
| 1777764296 | 14.44° C | 70% | 1015.4 hPa | 0 mm | - | 0 W/m² | - |
| 1777763559 | 14.44° C | 70% | 1015.5 hPa | 0 mm | - | 0 W/m² | - |
| 1777762860 | 15° C | 72% | 1015.5 hPa | 0 mm | - | 0 W/m² | - |
| 1777762173 | 16.11° C | 65% | 1015.5 hPa | 0 mm | - | 0 W/m² | - |
| 1777761486 | 16.67° C | 62% | 1015.6 hPa | 0 mm | - | 0 W/m² | - |
| 1777760800 | 16.11° C | 64% | 1015.6 hPa | 0 mm | - | 0 W/m² | - |
| 1777760111 | 15.56° C | 68% | 1015.6 hPa | 0 mm | - | 0 W/m² | - |
| 1777759423 | 15° C | 68% | 1015.6 hPa | 0 mm | - | 0 W/m² | - |
| 1777758749 | 14.44° C | 74% | 1015.7 hPa | 0 mm | - | 0 W/m² | - |
| 1777758049 | 13.89° C | 77% | 1015.6 hPa | 0 mm | - | 0 W/m² | - |
| 1777757362 | 13.89° C | 78% | 1015.5 hPa | 0 mm | - | 0 W/m² | - |
| 1777756679 | 13.89° C | 78% | 1015.5 hPa | 0 mm | - | 0 W/m² | - |
| 1777755987 | 13.89° C | 77% | 1015.4 hPa | 0 mm | - | 0 W/m² | - |
| 1777755299 | 14.44° C | 75% | 1015.4 hPa | 0 mm | - | 0 W/m² | - |
| 1777754612 | 14.44° C | 73% | 1015.3 hPa | 0 mm | - | 0 W/m² | - |
| 1777753937 | 15° C | 73% | 1015.3 hPa | 0 mm | - | 0 W/m² | - |
| 1777753237 | 15° C | 72% | 1015.3 hPa | 0 mm | - | 0 W/m² | - |
| 1777752550 | 15.56° C | 71% | 1015.2 hPa | 0 mm | - | 0 W/m² | - |
| 1777751862 | 16.11° C | 69% | 1015.2 hPa | 0 mm | - | 0 W/m² | - |
| 1777751174 | 16.67° C | 65% | 1015.2 hPa | 0 mm | - | 0 W/m² | - |
| 1777750487 | 16.11° C | 65% | 1015.1 hPa | 0 mm | - | 0 W/m² | - |
| 1777749799 | 16.11° C | 63% | 1015 hPa | 0 mm | - | 0 W/m² | - |
| 1777749125 | 16.67° C | 62% | 1014.8 hPa | 0 mm | - | 0 W/m² | - |
* Rain latest hour (hover to see other rain measurements)
** Current wind speed in m/s (hover to see current wind gust speed)